createdAt,value
2018-09-26T00:00:12.491Z,101923.39
2018-09-26T00:02:48.310Z,101921.00
2018-09-26T00:05:21.103Z,101918.98
2018-09-26T00:07:54.102Z,101907.91
2018-09-26T00:10:24.098Z,101898.13
2018-09-26T00:12:55.145Z,101891.84
2018-09-26T00:15:26.817Z,101884.50
2018-09-26T00:17:56.539Z,101881.86
2018-09-26T00:20:26.709Z,101872.61
2018-09-26T00:22:56.904Z,101868.97
2018-09-26T00:25:29.495Z,101864.14
2018-09-26T00:28:02.700Z,101869.10
2018-09-26T00:30:37.132Z,101874.41
2018-09-26T00:33:09.624Z,101872.78
2018-09-26T00:35:40.701Z,101876.09
2018-09-26T00:38:15.250Z,101881.84
2018-09-26T00:40:45.383Z,101871.17
2018-09-26T00:43:18.858Z,101868.24
2018-09-26T00:45:50.256Z,101866.55
2018-09-26T00:48:24.649Z,101854.84
2018-09-26T00:50:56.732Z,101852.06
2018-09-26T00:53:31.476Z,101856.56
2018-09-26T00:56:04.981Z,101857.09
2018-09-26T00:58:36.073Z,101859.16
2018-09-26T01:01:06.682Z,101857.89
2018-09-26T01:03:39.277Z,101854.88
2018-09-26T01:06:11.078Z,101857.45
2018-09-26T01:08:43.870Z,101851.13
2018-09-26T01:11:13.803Z,101860.17
2018-09-26T01:13:44.619Z,101863.55
2018-09-26T01:16:17.193Z,101858.84
2018-09-26T01:18:49.629Z,101858.84
2018-09-26T01:21:23.755Z,101863.55
2018-09-26T01:23:54.980Z,101857.44
2018-09-26T01:26:25.888Z,101850.47
2018-09-26T01:28:55.779Z,101843.81
2018-09-26T01:31:29.782Z,101852.20
2018-09-26T01:34:01.657Z,101844.45
2018-09-26T01:36:32.200Z,101830.31
2018-09-26T01:39:05.402Z,101830.67
2018-09-26T01:41:37.071Z,101825.03
2018-09-26T01:44:07.465Z,101822.83
2018-09-26T01:46:39.593Z,101823.94
2018-09-26T01:49:11.778Z,101829.61
2018-09-26T01:51:44.074Z,101836.66
2018-09-26T01:54:15.725Z,101831.61
2018-09-26T01:56:47.727Z,101833.25
2018-09-26T01:59:21.548Z,101834.31
2018-09-26T02:01:54.826Z,101829.20
2018-09-26T02:04:28.033Z,101833.34
2018-09-26T02:07:00.113Z,101826.05
2018-09-26T02:09:35.468Z,101833.42
2018-09-26T02:12:10.300Z,101834.22
2018-09-26T02:14:42.666Z,101837.35
2018-09-26T02:17:14.525Z,101840.02
2018-09-26T02:19:51.666Z,101836.31
2018-09-26T02:22:25.587Z,101851.10
2018-09-26T02:24:59.584Z,101852.99
2018-09-26T02:27:39.907Z,101842.14
2018-09-26T02:30:15.742Z,101842.33
2018-09-26T02:32:50.982Z,101836.30
2018-09-26T02:35:20.387Z,101830.94
2018-09-26T02:37:53.136Z,101832.39
2018-09-26T02:40:24.370Z,101821.34
2018-09-26T02:43:00.772Z,101822.22
2018-09-26T02:45:33.546Z,101813.00
2018-09-26T02:48:09.611Z,101821.16
2018-09-26T02:50:48.206Z,101826.25
2018-09-26T02:53:22.536Z,101829.94
2018-09-26T02:55:55.053Z,101823.75
2018-09-26T02:58:28.709Z,101821.05
2018-09-26T03:01:02.607Z,101817.30
2018-09-26T03:03:36.015Z,101807.55
2018-09-26T03:06:09.221Z,101809.90
2018-09-26T03:08:41.595Z,101801.12
2018-09-26T03:11:15.634Z,101799.98
2018-09-26T03:13:48.292Z,101790.81
2018-09-26T03:16:21.126Z,101778.55
2018-09-26T03:18:53.200Z,101765.48
2018-09-26T03:21:27.634Z,101764.66
2018-09-26T03:23:59.813Z,101762.08
2018-09-26T03:26:33.727Z,101768.40
2018-09-26T03:29:06.632Z,101775.98
2018-09-26T03:31:37.396Z,101768.15
2018-09-26T03:34:08.039Z,101762.57
2018-09-26T03:36:39.593Z,101762.63
2018-09-26T03:39:11.786Z,101755.45
2018-09-26T03:41:44.572Z,101753.72
2018-09-26T03:44:15.258Z,101760.09
2018-09-26T03:46:45.631Z,101764.03
2018-09-26T03:49:18.550Z,101756.80
2018-09-26T03:51:52.281Z,101767.23
2018-09-26T03:54:22.399Z,101773.09
2018-09-26T03:56:53.484Z,101771.53
2018-09-26T03:59:24.103Z,101767.11
2018-09-26T04:01:56.492Z,101772.41
2018-09-26T04:04:28.450Z,101778.55
2018-09-26T04:06:58.426Z,101771.43
2018-09-26T04:09:31.146Z,101768.95
2018-09-26T04:12:01.776Z,101764.80
2018-09-26T04:14:34.930Z,101760.73
2018-09-26T04:17:10.286Z,101767.80
2018-09-26T04:19:41.444Z,101755.97
2018-09-26T04:22:19.046Z,101749.09
2018-09-26T04:25:02.784Z,101758.11
2018-09-26T04:27:36.738Z,101752.52
2018-09-26T04:30:08.803Z,101754.76
2018-09-26T04:32:39.570Z,101754.32
2018-09-26T04:35:13.168Z,101749.94
2018-09-26T04:37:50.776Z,101757.11
2018-09-26T04:40:23.565Z,101757.34
2018-09-26T04:42:56.571Z,101765.46
2018-09-26T04:45:30.463Z,101764.33
2018-09-26T04:48:01.811Z,101766.05
2018-09-26T04:50:35.672Z,101761.02
2018-09-26T04:53:09.931Z,101752.52
2018-09-26T04:55:46.863Z,101761.19
2018-09-26T04:58:22.255Z,101755.66
2018-09-26T05:00:55.012Z,101763.47
2018-09-26T05:03:25.274Z,101776.97
2018-09-26T05:05:58.854Z,101776.45
2018-09-26T05:08:30.570Z,101788.63
2018-09-26T05:11:03.363Z,101788.64
2018-09-26T05:13:39.538Z,101783.83
2018-09-26T05:16:16.026Z,101773.59
2018-09-26T05:18:55.257Z,101774.72
2018-09-26T05:21:28.449Z,101783.76
2018-09-26T05:24:05.824Z,101790.27
2018-09-26T05:26:40.204Z,101793.12
2018-09-26T05:29:13.348Z,101791.77
2018-09-26T05:31:46.233Z,101796.38
2018-09-26T05:34:20.434Z,101792.17
2018-09-26T05:36:54.662Z,101791.27
2018-09-26T05:39:32.973Z,101779.97
2018-09-26T05:42:05.959Z,101778.36
2018-09-26T05:44:39.151Z,101772.73
2018-09-26T05:47:16.950Z,101772.70
2018-09-26T05:49:52.463Z,101773.42
2018-09-26T05:52:26.281Z,101779.97
2018-09-26T05:54:58.077Z,101774.11
2018-09-26T05:57:33.591Z,101767.98
2018-09-26T06:00:08.023Z,101767.30
2018-09-26T06:02:37.734Z,101776.88
2018-09-26T06:05:12.774Z,101777.44
2018-09-26T06:07:47.662Z,101768.89
2018-09-26T06:10:19.126Z,101772.47
2018-09-26T06:12:57.773Z,101780.17
2018-09-26T06:15:31.777Z,101786.69
2018-09-26T06:18:04.881Z,101787.91
2018-09-26T06:20:35.321Z,101783.41
2018-09-26T06:23:06.931Z,101794.92
2018-09-26T06:25:39.580Z,101791.83
2018-09-26T06:28:16.882Z,101784.15
2018-09-26T06:30:51.725Z,101777.68
2018-09-26T06:33:33.530Z,101769.37
2018-09-26T06:36:04.883Z,101783.87
2018-09-26T06:38:37.250Z,101801.22
2018-09-26T06:41:09.729Z,101804.38
2018-09-26T06:43:42.769Z,101798.09
2018-09-26T06:46:19.350Z,101800.67
2018-09-26T06:48:52.350Z,101812.91
2018-09-26T06:54:04.805Z,101813.88
2018-09-26T06:56:36.874Z,101813.22
2018-09-26T06:59:09.132Z,101817.61
2018-09-26T07:01:42.064Z,101812.51
2018-09-26T07:04:13.323Z,101814.48
2018-09-26T07:06:45.094Z,101804.55
2018-09-26T07:09:18.822Z,101803.84
2018-09-26T07:11:49.457Z,101794.62
2018-09-26T07:14:21.840Z,101787.54
2018-09-26T07:17:00.269Z,101796.06
2018-09-26T07:19:30.820Z,101801.48
2018-09-26T07:22:05.169Z,101797.27
2018-09-26T07:24:40.088Z,101788.49
2018-09-26T07:27:13.086Z,101783.20
2018-09-26T07:29:48.864Z,101781.46
2018-09-26T07:32:21.741Z,101778.27
2018-09-26T07:34:56.365Z,101774.07
2018-09-26T07:37:29.659Z,101769.05
2018-09-26T07:40:07.509Z,101779.17
2018-09-26T07:42:40.100Z,101777.14
2018-09-26T07:45:13.258Z,101769.09
2018-09-26T07:47:48.570Z,101760.74
2018-09-26T07:50:19.997Z,101775.55
2018-09-26T07:52:51.475Z,101796.13
2018-09-26T07:55:24.044Z,101799.42
2018-09-26T07:57:55.143Z,101800.41
2018-09-26T08:00:27.210Z,101802.05
2018-09-26T08:02:58.776Z,101803.66
2018-09-26T08:05:31.264Z,101794.88
2018-09-26T08:08:05.913Z,101794.25
2018-09-26T08:10:38.686Z,101797.79
2018-09-26T08:13:11.773Z,101796.69
2018-09-26T08:15:42.360Z,101790.91
2018-09-26T08:18:15.473Z,101797.37
2018-09-26T08:20:50.711Z,101797.61
2018-09-26T08:23:25.131Z,101807.39
2018-09-26T08:25:58.402Z,101819.77
2018-09-26T08:28:34.220Z,101828.20
2018-09-26T08:31:06.259Z,101819.83
2018-09-26T08:33:40.219Z,101812.31
2018-09-26T08:36:11.971Z,101805.66
2018-09-26T08:38:44.461Z,101801.72
2018-09-26T08:41:19.816Z,101805.88
2018-09-26T08:43:57.224Z,101801.84
2018-09-26T08:46:30.321Z,101795.07
2018-09-26T08:49:03.210Z,101789.98
2018-09-26T08:51:35.881Z,101798.92
2018-09-26T08:54:07.068Z,101800.98
2018-09-26T08:56:39.067Z,101800.24
2018-09-26T08:59:09.977Z,101798.66
2018-09-26T09:01:48.730Z,101796.30
2018-09-26T09:04:20.896Z,101792.87
2018-09-26T09:06:51.304Z,101790.38
2018-09-26T09:09:21.971Z,101787.95
2018-09-26T09:11:52.250Z,101788.56
2018-09-26T09:14:24.160Z,101790.45
2018-09-26T09:16:54.544Z,101784.78
2018-09-26T09:19:29.182Z,101783.30
2018-09-26T09:22:03.818Z,101788.02
2018-09-26T09:24:34.975Z,101791.54
2018-09-26T09:27:06.077Z,101779.08
2018-09-26T09:29:37.002Z,101789.09
2018-09-26T09:32:09.199Z,101788.34
2018-09-26T09:34:42.364Z,101789.20
2018-09-26T09:37:12.090Z,101796.63
2018-09-26T09:39:51.440Z,101786.34
2018-09-26T09:42:25.052Z,101783.36
2018-09-26T09:44:57.432Z,101784.85
2018-09-26T09:47:28.354Z,101787.41
2018-09-26T09:49:58.218Z,101782.55
2018-09-26T09:52:30.681Z,101779.42
2018-09-26T09:55:04.318Z,101778.23
2018-09-26T09:57:36.908Z,101772.98
2018-09-26T10:00:10.007Z,101775.41
2018-09-26T10:02:40.857Z,101774.08
2018-09-26T10:05:14.461Z,101767.27
2018-09-26T10:07:47.571Z,101766.89
2018-09-26T10:10:19.209Z,101770.58
2018-09-26T10:12:51.042Z,101764.34
2018-09-26T10:15:24.112Z,101764.34
2018-09-26T10:17:58.447Z,101758.39
2018-09-26T10:20:31.855Z,101757.64
2018-09-26T10:23:05.091Z,101767.99
2018-09-26T10:25:35.791Z,101759.95
2018-09-26T10:28:06.217Z,101756.55
2018-09-26T10:30:40.511Z,101755.45
2018-09-26T10:33:12.692Z,101753.80
2018-09-26T10:35:46.167Z,101758.83
2018-09-26T10:38:18.795Z,101752.59
2018-09-26T10:40:51.107Z,101744.59
2018-09-26T10:43:22.232Z,101750.32
2018-09-26T10:45:51.808Z,101748.71
2018-09-26T10:48:23.075Z,101746.16
2018-09-26T10:50:54.845Z,101744.98
2018-09-26T10:53:27.339Z,101745.81
2018-09-26T10:55:58.421Z,101744.59
2018-09-26T10:58:31.594Z,101749.63
2018-09-26T11:01:05.652Z,101746.38
2018-09-26T11:03:38.193Z,101744.75
2018-09-26T11:06:08.206Z,101742.19
2018-09-26T11:08:41.238Z,101734.13
2018-09-26T11:11:12.393Z,101736.72
2018-09-26T11:13:42.048Z,101726.93
2018-09-26T11:16:12.797Z,101725.60
2018-09-26T11:18:44.789Z,101725.72
2018-09-26T11:21:18.290Z,101721.91
2018-09-26T11:23:49.609Z,101714.33
2018-09-26T11:26:25.893Z,101717.23
2018-09-26T11:28:58.787Z,101715.20
2018-09-26T11:31:31.880Z,101718.91
2018-09-26T11:34:07.971Z,101719.38
2018-09-26T11:36:40.140Z,101718.89
2018-09-26T11:39:14.357Z,101714.33
2018-09-26T11:41:45.361Z,101705.86
2018-09-26T11:44:19.435Z,101704.03
2018-09-26T11:46:52.385Z,101700.18
2018-09-26T11:49:27.905Z,101693.73
2018-09-26T11:52:03.084Z,101690.83
2018-09-26T11:54:34.416Z,101692.00
2018-09-26T11:57:05.410Z,101692.41
2018-09-26T11:59:38.974Z,101686.31
2018-09-26T12:02:16.879Z,101686.77
2018-09-26T12:04:50.369Z,101676.21
2018-09-26T12:07:24.285Z,101674.28
2018-09-26T12:09:58.766Z,101670.94
2018-09-26T12:12:30.025Z,101679.44
2018-09-26T12:15:00.713Z,101670.63
2018-09-26T12:17:31.618Z,101662.57
2018-09-26T12:20:04.806Z,101659.72
2018-09-26T12:22:36.918Z,101656.78
2018-09-26T12:25:09.854Z,101655.74
2018-09-26T12:27:43.497Z,101651.28
2018-09-26T12:30:14.591Z,101653.78
2018-09-26T12:32:47.167Z,101647.56
2018-09-26T12:35:23.955Z,101646.02
2018-09-26T12:37:56.587Z,101649.98
2018-09-26T12:40:30.468Z,101647.82
2018-09-26T12:43:02.893Z,101649.06
2018-09-26T12:45:36.978Z,101644.89
2018-09-26T12:48:11.330Z,101636.60
2018-09-26T12:50:51.584Z,101647.41
2018-09-26T12:53:24.723Z,101641.27
2018-09-26T12:55:56.138Z,101638.80
2018-09-26T12:58:27.731Z,101631.36
2018-09-26T13:00:58.526Z,101633.20
2018-09-26T13:03:29.148Z,101633.94
2018-09-26T13:06:02.005Z,101629.80
2018-09-26T13:08:37.229Z,101628.64
2018-09-26T13:11:09.951Z,101623.00
2018-09-26T13:13:41.409Z,101625.89
2018-09-26T13:16:13.847Z,101625.11
2018-09-26T13:18:47.094Z,101625.55
2018-09-26T13:21:20.617Z,101619.36
2018-09-26T13:23:52.944Z,101615.50
2018-09-26T13:26:24.942Z,101617.83
2018-09-26T13:28:57.161Z,101613.51
2018-09-26T13:31:28.051Z,101607.64
2018-09-26T13:33:58.940Z,101611.86
2018-09-26T13:36:30.540Z,101602.45
2018-09-26T13:39:06.845Z,101605.95
2018-09-26T13:41:38.372Z,101604.83
2018-09-26T13:44:10.741Z,101606.17
2018-09-26T13:46:42.396Z,101601.89
2018-09-26T13:49:15.423Z,101603.25
2018-09-26T13:51:50.621Z,101593.50
2018-09-26T13:54:25.136Z,101596.92
2018-09-26T13:57:02.457Z,101593.37
2018-09-26T13:59:34.535Z,101592.20
2018-09-26T14:02:07.220Z,101591.85
2018-09-26T14:04:38.544Z,101587.47
2018-09-26T14:07:10.519Z,101579.72
2018-09-26T14:09:43.721Z,101580.34
2018-09-26T14:12:14.418Z,101582.45
2018-09-26T14:14:51.131Z,101578.73
2018-09-26T14:17:23.709Z,101573.75
2018-09-26T14:19:57.001Z,101578.03
2018-09-26T14:22:30.885Z,101573.70
2018-09-26T14:25:00.649Z,101570.84
2018-09-26T14:27:32.741Z,101575.90
2018-09-26T14:30:08.517Z,101572.14
2018-09-26T14:32:39.904Z,101576.72
2018-09-26T14:35:18.835Z,101560.64
2018-09-26T14:37:51.944Z,101561.39
2018-09-26T14:40:23.664Z,101564.84
2018-09-26T14:42:54.002Z,101561.08
2018-09-26T14:45:30.500Z,101560.86
2018-09-26T14:48:03.334Z,101558.78
2018-09-26T14:50:35.050Z,101548.59
2018-09-26T14:53:08.407Z,101555.73
2018-09-26T14:55:42.076Z,101553.48
2018-09-26T14:58:13.838Z,101552.75
2018-09-26T15:00:47.499Z,101547.31
2018-09-26T15:03:18.312Z,101546.27
2018-09-26T15:05:52.448Z,101553.23
2018-09-26T15:08:25.566Z,101550.06
2018-09-26T15:10:59.153Z,101547.99
2018-09-26T15:13:36.198Z,101552.10
2018-09-26T15:16:09.504Z,101543.59
2018-09-26T15:18:41.377Z,101542.23
2018-09-26T15:21:14.581Z,101538.06
2018-09-26T15:23:52.816Z,101543.09
2018-09-26T15:26:30.774Z,101540.30
2018-09-26T15:29:02.783Z,101533.38
2018-09-26T15:31:36.223Z,101534.69
2018-09-26T15:34:10.393Z,101525.97
2018-09-26T15:36:44.031Z,101520.48
2018-09-26T15:39:17.209Z,101517.98
2018-09-26T15:41:50.072Z,101526.62
2018-09-26T15:44:21.752Z,101526.26
2018-09-26T15:46:55.389Z,101526.91
2018-09-26T15:49:26.879Z,101521.94
2018-09-26T15:52:00.952Z,101527.21
2018-09-26T15:54:32.546Z,101528.66
2018-09-26T15:57:04.671Z,101522.09
2018-09-26T15:59:38.492Z,101520.41
2018-09-26T16:02:08.492Z,101518.16
2018-09-26T16:04:41.324Z,101520.33
2018-09-26T16:07:18.778Z,101520.92
2018-09-26T16:09:52.346Z,101518.17
2018-09-26T16:12:24.222Z,101519.47
2018-09-26T16:14:56.344Z,101520.42
2018-09-26T16:17:29.520Z,101520.73
2018-09-26T16:20:02.344Z,101520.92
2018-09-26T16:22:35.322Z,101520.86
2018-09-26T16:25:07.063Z,101518.50
2018-09-26T16:27:40.020Z,101524.16
2018-09-26T16:30:13.577Z,101524.44
2018-09-26T16:32:44.570Z,101525.09
2018-09-26T16:35:17.112Z,101523.12
2018-09-26T16:37:50.850Z,101518.41
2018-09-26T16:40:31.261Z,101517.80
2018-09-26T16:43:03.032Z,101514.01
2018-09-26T16:45:33.905Z,101515.72
2018-09-26T16:48:08.140Z,101522.98
2018-09-26T16:50:40.594Z,101526.25
2018-09-26T16:53:13.947Z,101529.57
2018-09-26T16:55:46.638Z,101525.31
2018-09-26T16:58:18.209Z,101526.52
2018-09-26T17:00:53.357Z,101536.14
2018-09-26T17:03:27.605Z,101534.01
2018-09-26T17:05:58.089Z,101538.36
2018-09-26T17:08:34.161Z,101537.83
2018-09-26T17:11:07.469Z,101537.20
2018-09-26T17:13:37.642Z,101538.19
2018-09-26T17:16:10.607Z,101534.05
2018-09-26T17:18:42.966Z,101538.33
2018-09-26T17:21:12.813Z,101541.06
2018-09-26T17:23:44.074Z,101546.97
2018-09-26T17:26:17.823Z,101550.08
2018-09-26T17:28:51.424Z,101553.34
2018-09-26T17:31:24.031Z,101558.52
2018-09-26T17:33:56.174Z,101563.45
2018-09-26T17:36:26.551Z,101569.35
2018-09-26T17:39:00.005Z,101566.98
2018-09-26T17:41:33.946Z,101563.95
2018-09-26T17:44:09.748Z,101567.45
2018-09-26T17:46:47.458Z,101572.63
2018-09-26T17:49:18.090Z,101567.48
2018-09-26T17:51:50.020Z,101566.02
2018-09-26T17:54:21.561Z,101567.06
2018-09-26T17:56:52.971Z,101563.21
2018-09-26T17:59:25.662Z,101562.03
2018-09-26T18:02:02.866Z,101574.44
2018-09-26T18:04:35.655Z,101567.40
2018-09-26T18:07:07.311Z,101566.80
2018-09-26T18:09:39.276Z,101572.61
2018-09-26T18:12:12.056Z,101572.83
2018-09-26T18:14:43.877Z,101575.05
2018-09-26T18:17:16.882Z,101576.47
2018-09-26T18:19:48.471Z,101578.83
2018-09-26T18:22:21.062Z,101576.02
2018-09-26T18:24:53.297Z,101577.08
2018-09-26T18:27:24.434Z,101572.08
2018-09-26T18:29:55.350Z,101571.27
2018-09-26T18:32:25.656Z,101572.32
2018-09-26T18:35:00.911Z,101572.79
2018-09-26T18:37:36.039Z,101580.80
2018-09-26T18:40:08.754Z,101578.43
2018-09-26T18:42:39.327Z,101574.18
2018-09-26T18:45:13.678Z,101572.98
2018-09-26T18:47:45.246Z,101569.58
2018-09-26T18:50:17.712Z,101571.41
2018-09-26T18:52:52.452Z,101572.77
2018-09-26T18:55:24.505Z,101563.95
2018-09-26T18:57:58.471Z,101569.43
2018-09-26T19:00:30.499Z,101569.27
2018-09-26T19:03:03.018Z,101575.04
2018-09-26T19:05:36.326Z,101571.88
2018-09-26T19:08:08.785Z,101582.27
2018-09-26T19:10:43.834Z,101580.30
2018-09-26T19:13:16.322Z,101586.03
2018-09-26T19:15:48.724Z,101585.13
2018-09-26T19:18:19.749Z,101587.22
2018-09-26T19:20:51.831Z,101594.25
2018-09-26T19:23:26.147Z,101590.52
2018-09-26T19:26:01.386Z,101589.44
2018-09-26T19:28:32.580Z,101588.89
2018-09-26T19:31:04.695Z,101579.98
2018-09-26T19:33:39.300Z,101586.53
2018-09-26T19:36:15.996Z,101581.42
2018-09-26T19:38:50.557Z,101588.66
2018-09-26T19:41:25.466Z,101600.50
2018-09-26T19:43:57.287Z,101587.24
2018-09-26T19:46:28.604Z,101595.77
2018-09-26T19:49:05.016Z,101600.21
2018-09-26T19:51:39.620Z,101597.02
2018-09-26T19:54:12.426Z,101595.20
2018-09-26T19:56:46.625Z,101597.69
2018-09-26T19:59:20.442Z,101597.49
2018-09-26T20:01:51.964Z,101595.90
2018-09-26T20:04:28.536Z,101597.27
2018-09-26T20:07:02.635Z,101596.37
2018-09-26T20:09:36.688Z,101597.53
2018-09-26T20:12:09.167Z,101589.55
2018-09-26T20:14:40.025Z,101593.27
2018-09-26T20:17:13.909Z,101598.20
2018-09-26T20:19:44.566Z,101599.77
2018-09-26T20:22:16.034Z,101602.50
2018-09-26T20:24:46.726Z,101604.30
2018-09-26T20:27:17.848Z,101597.94
2018-09-26T20:29:55.455Z,101596.73
2018-09-26T20:32:27.814Z,101595.80
2018-09-26T20:35:02.804Z,101595.87
2018-09-26T20:37:34.214Z,101591.75
2018-09-26T20:40:05.481Z,101594.49
2018-09-26T20:42:37.677Z,101596.91
2018-09-26T20:45:11.926Z,101593.28
2018-09-26T20:47:46.059Z,101587.88
2018-09-26T20:50:18.727Z,101583.92
2018-09-26T20:52:53.050Z,101586.09
2018-09-26T20:55:24.267Z,101589.11
2018-09-26T20:57:54.621Z,101589.16
2018-09-26T21:00:27.232Z,101594.30
2018-09-26T21:03:03.420Z,101593.28
2018-09-26T21:05:33.757Z,101593.78
2018-09-26T21:08:08.202Z,101595.92
2018-09-26T21:10:40.448Z,101597.67
2018-09-26T21:13:19.910Z,101597.17
2018-09-26T21:15:51.460Z,101603.27
2018-09-26T21:18:24.550Z,101600.40
2018-09-26T21:20:58.212Z,101598.47
2018-09-26T21:23:31.315Z,101598.11
2018-09-26T21:26:05.371Z,101591.98
2018-09-26T21:28:36.597Z,101585.23
2018-09-26T21:31:08.575Z,101579.84
2018-09-26T21:33:40.627Z,101577.08
2018-09-26T21:36:14.639Z,101577.58
2018-09-26T21:38:47.473Z,101578.44
2018-09-26T21:41:21.631Z,101576.43
2018-09-26T21:43:55.928Z,101578.20
2018-09-26T21:46:32.194Z,101574.08
2018-09-26T21:49:04.177Z,101570.86
2018-09-26T21:51:40.958Z,101568.34
2018-09-26T21:54:12.335Z,101577.61
2018-09-26T21:56:45.802Z,101575.55
2018-09-26T21:59:20.528Z,101577.11
2018-09-26T22:01:55.430Z,101575.86
2018-09-26T22:04:30.285Z,101568.63
2018-09-26T22:07:04.296Z,101573.77
2018-09-26T22:09:39.002Z,101579.84
2018-09-26T22:12:10.673Z,101585.84
2018-09-26T22:14:43.401Z,101580.28
2018-09-26T22:17:16.482Z,101577.52
2018-09-26T22:19:53.904Z,101564.72
2018-09-26T22:22:29.257Z,101571.05
2018-09-26T22:25:05.009Z,101571.70
2018-09-26T22:27:36.269Z,101571.08
2018-09-26T22:30:15.097Z,101573.99
2018-09-26T22:32:54.735Z,101575.87
2018-09-26T22:35:29.668Z,101576.59
2018-09-26T22:38:02.457Z,101584.05
2018-09-26T22:40:37.668Z,101588.12
2018-09-26T22:43:19.589Z,101589.22
2018-09-26T22:45:56.051Z,101592.09
2018-09-26T22:48:33.236Z,101590.20
2018-09-26T22:51:05.857Z,101595.20
2018-09-26T22:53:38.132Z,101598.86
2018-09-26T22:56:13.428Z,101594.55
2018-09-26T22:58:47.644Z,101598.52
2018-09-26T23:01:22.459Z,101597.67
2018-09-26T23:03:55.046Z,101592.87
2018-09-26T23:06:28.342Z,101600.67
2018-09-26T23:09:02.350Z,101601.78
2018-09-26T23:11:36.093Z,101599.04
2018-09-26T23:14:08.269Z,101594.70
2018-09-26T23:16:39.033Z,101598.19
2018-09-26T23:19:13.252Z,101592.98
2018-09-26T23:21:46.763Z,101584.95
2018-09-26T23:24:19.549Z,101586.64
2018-09-26T23:26:57.199Z,101577.50
2018-09-26T23:29:37.093Z,101579.63
2018-09-26T23:32:11.564Z,101575.02
2018-09-26T23:34:45.604Z,101568.93
2018-09-26T23:37:26.372Z,101569.59
2018-09-26T23:40:00.091Z,101570.18
2018-09-26T23:42:33.594Z,101568.87
2018-09-26T23:45:04.328Z,101567.62
2018-09-26T23:47:36.527Z,101570.76
2018-09-26T23:50:08.563Z,101572.96
2018-09-26T23:52:40.481Z,101570.18
2018-09-26T23:55:13.698Z,101566.52
2018-09-26T23:57:50.474Z,101567.05
